Shady Point, OK (74956)

1:39 PM CDT on April 01, 2015 (GMT -0500)
Kerr | | Change Station
CLOSE
Current Station
Airport
Location: Poteau,
Elevation: 453 ft
Nearby Weather Stations

Elev 453 ft 35.02 °N, 94.62 °W | Updated 4 minutes ago

Overcast
Overcast
76 °F
Feels Like 76 °F
N
8
Wind Variable Wind from South
Gusts 18 mph

Today
High -- | Low -- °F
--% Chance of Precip.
Yesterday
High -- | Low -- °F
Precip. -- in
7:05 AM 7:39 PM
Waxing Gibbous, 93% visible
Pressure 29.88 in
Visibility 10.0 miles
Clouds Scattered Clouds 4000 ft
Scattered Clouds 5000 ft
Dew Point 61 °F
Humidity 60%
Rainfall 0.00 in
Snow Depth Not available.
UV 8 out of 12
Pollen 10.40 out of 12
Air Quality Not available.
Flu Activity Not available.
METAR KRKR 011835Z AUTO 19007G16KT 10SM SCT040 SCT050 24/16 A2988 RMK AO2 T02430160

More Conditions Fewer Conditions

Pressure 29.88 in
Visibility 10.0 miles
Clouds Scattered Clouds 4000 ft
Scattered Clouds 5000 ft
Dew Point 61 °F
Humidity 60%
Rainfall 0.00 in
Snow Depth Not available.
UV 8 out of 12
Pollen 10.40 out of 12
Air Quality Not available.
Flu Activity Not available.
METAR KRKR 011835Z AUTO 19007G16KT 10SM SCT040 SCT050 24/16 A2988 RMK AO2 T02430160

More Conditions Fewer Conditions

Nowcast | as of 12:53 PM CDT on April 1, 2015

At 12:53 PM...National Weather Service Doppler radars continued to detect widely scattered rain showers and thunderstorms developing over portions of eastern Oklahoma and western Arkansas. A few stronger storms were affecting far northeast Oklahoma within northern Delaware and Ottawa counties...as well as far northwest Arkansas within Carroll County. All this activity was moving toward the northeast...around 30 miles per hour. Through 2:00 PM...scattered rain showers with isolated thunderstorms will continue to develop...and spread northeast across the forecast area. Light to moderate rainfall will be expected...with brief heavy rain possible with any stronger storms. Precipitation amounts will range from around a tenth of an inch...to up to a quarter of an inch. Small hail and gusty winds will also be possible with any stronger thunderstorms that develop.

×

10-Day Weather Forecast

Almanac

Astronomy

Apr. 01, 2015 Rise Set
Actual Time
Civil Twilight
Nautical Twilight
Astronomical Twilight
Moon
Length of Visible Light
Length of Day
Tomorrow will be .
, % of the Moon is Illuminated

Today's Extremes

State Highs State Lows

Community

WunderPhotos

Upload Photos

1,810,035 photos uploaded!

WunderBlogs® & News

Nearby

Air Quality

  Air Quality AQ Index Pollutant
Not available.

Snow Depth

Station Depth Elevation

Earthquake Activity

City Distance Mag. Time & Date
Minimum magnitude displayed is 2.5.

Coastal Water Temperatures

Place Temperature

Stations

Nearby Weather Stations

Station Location Temp. Windchill Dew Point Humidity Wind Precip. Elev Updated Type